Time;durP1;ratioP1;P1;durP2;ratioP2;P2;SDS_P1;SDS_P2;PMS_P1;PMS_P2;Temp;Humidity;BMP_temperature;BMP_pressure;BME280_temperature;BME280_humidity;BME280_pressure;Samples;Min_cycle;Max_cycle;Signal;HPM_P1;HPM_P2
2023/10/13 00:01:07;;;;;;;;;;;;;;;-140.72;100.00;60470.91;5076181;28;20371;-69
2023/10/13 00:03:33;;;;;;;;;;;;;;;-140.72;100.00;60493.28;5073973;28;20426;-69
2023/10/13 00:06:02;;;;;;;;;;;;;;;-140.72;100.00;60556.31;5073590;28;20019;-69
2023/10/13 00:08:28;;;;;;;;;;;;;;;-140.72;100.00;60540.03;5069197;28;19974;-69
2023/10/13 00:11:05;;;;;;;;;;;;;;;-140.72;100.00;60625.44;5074367;28;19927;-69
2023/10/13 00:13:41;;;;;;;;;;;;;;;-140.72;100.00;60637.66;5073539;28;19920;-69
2023/10/13 00:16:09;;;;;;;;;;;;;;;-140.72;100.00;60684.41;5070675;28;19962;-69
2023/10/13 00:18:41;;;;;;;;;;;;;;;-140.72;100.00;60686.44;5075047;28;19928;-69
2023/10/13 00:21:12;;;;;;;;;;;;;;;-140.72;100.00;60729.16;5068042;28;19925;-69
2023/10/13 00:23:38;;;;;;;;;;;;;;;-140.72;100.00;60708.81;5073213;28;19928;-69
2023/10/13 00:26:09;;;;;;;;;;;;;;;-140.72;100.00;60729.16;5073356;28;19954;-70
2023/10/13 00:29:17;;;;;;;;;;;;;;;-140.72;100.00;60767.78;5068835;28;19921;-69
2023/10/13 00:31:33;;;;;;;;;;;;;;;-140.72;100.00;60812.53;5068182;28;19921;-69
2023/10/13 00:34:09;;;;;;;;;;;;;;;-140.72;100.00;60798.28;5073083;28;20305;-69
2023/10/13 00:36:34;;;;;;;;;;;;;;;-140.72;100.00;60836.91;5072940;28;20298;-69
2023/10/13 00:39:03;;;;;;;;;;;;;;;-140.72;100.00;60810.47;5070382;28;19924;-69
2023/10/13 00:41:51;;;;;;;;;;;;;;;-140.72;100.00;60893.84;5069022;28;19920;-69
2023/10/13 00:44:16;;;;;;;;;;;;;;;-140.72;100.00;60836.91;5070339;28;20334;-69
2023/10/13 00:46:44;;;;;;;;;;;;;;;-140.72;100.00;60861.31;5073796;28;19916;-69
2023/10/13 00:49:11;;;;;;;;;;;;;;;-140.72;100.00;60885.72;5072926;28;20236;-69
2023/10/13 00:51:40;;;;;;;;;;;;;;;-140.72;100.00;60875.56;5070378;28;19924;-69
2023/10/13 00:54:10;;;;;;;;;;;;;;;-140.72;100.00;60904.03;5072496;28;19921;-69
2023/10/13 00:56:40;;;;;;;;;;;;;;;-140.72;100.00;60897.91;5070970;28;20375;-69
2023/10/13 00:59:09;;;;;;;;;;;;;;;-140.72;100.00;60916.22;5073057;28;20294;-69
2023/10/13 01:01:35;;;;;;;;;;;;;;;-140.72;100.00;60916.22;5065690;28;20385;-69
2023/10/13 01:04:03;;;;;;;;;;;;;;;-140.72;100.00;60908.09;5074657;28;19962;-69
2023/10/13 01:06:29;;;;;;;;;;;;;;;-140.72;100.00;60897.91;5079830;28;19920;-69
2023/10/13 01:08:59;;;;;;;;;;;;;;;-140.72;100.00;60902.00;5081267;28;20802;-69
2023/10/13 01:11:26;;;;;;;;;;;;;;;-140.72;100.00;60908.09;5077479;28;20377;-69
2023/10/13 01:13:53;;;;;;;;;;;;;;;-140.72;100.00;60893.84;5072157;28;19954;-69
2023/10/13 01:16:23;;;;;;;;;;;;;;;-140.72;100.00;60891.81;5075170;28;19928;-69
2023/10/13 01:18:49;;;;;;;;;;;;;;;-140.72;100.00;60893.84;5077582;28;20015;-69
2023/10/13 01:21:16;;;;;;;;;;;;;;;-140.72;100.00;60899.97;5077586;28;20054;-69
2023/10/13 01:23:44;;;;;;;;;;;;;;;-140.72;100.00;60877.59;5078322;28;19917;-70
2023/10/13 01:26:12;;;;;;;;;;;;;;;-140.72;100.00;60873.53;5078202;28;19929;-69
2023/10/13 01:28:44;;;;;;;;;;;;;;;-140.72;100.00;60908.09;5079350;28;20290;-71
2023/10/13 01:31:37;;;;;;;;;;;;;;;-140.72;100.00;60851.16;5074503;28;19921;-70
2023/10/13 01:33:58;;;;;;;;;;;;;;;-140.72;100.00;60883.69;5071400;28;19967;-69
2023/10/13 01:36:24;;;;;;;;;;;;;;;-140.72;100.00;60859.28;5079459;28;20386;-70
2023/10/13 01:38:50;;;;;;;;;;;;;;;-140.72;100.00;60895.88;5079629;28;20330;-69
2023/10/13 01:41:15;;;;;;;;;;;;;;;-140.72;100.00;60849.13;5076302;28;19940;-70
2023/10/13 01:43:41;;;;;;;;;;;;;;;-140.72;100.00;60865.38;5078291;28;19920;-69
2023/10/13 01:46:06;;;;;;;;;;;;;;;-140.72;100.00;60887.75;5071351;28;19924;-69
2023/10/13 01:48:38;;;;;;;;;;;;;;;-140.72;100.00;60816.59;5077882;28;19966;-69
2023/10/13 01:51:05;;;;;;;;;;;;;;;-140.72;100.00;60849.13;5084624;28;19920;-69
2023/10/13 01:53:30;;;;;;;;;;;;;;;-140.72;100.00;60824.72;5072005;28;20003;-69
2023/10/13 01:55:57;;;;;;;;;;;;;;;-140.72;100.00;60838.94;5079208;28;19927;-69
2023/10/13 01:58:23;;;;;;;;;;;;;;;-140.72;100.00;60804.38;5075959;28;19921;-70
2023/10/13 02:00:48;;;;;;;;;;;;;;;-140.72;100.00;60847.09;5078442;28;20043;-69
2023/10/13 02:03:17;;;;;;;;;;;;;;;-140.72;100.00;60812.53;5073384;28;19921;-69
2023/10/13 02:05:49;;;;;;;;;;;;;;;-140.72;100.00;60849.13;5075475;28;19974;-69
2023/10/13 02:08:22;;;;;;;;;;;;;;;-140.72;100.00;60849.13;5076138;28;20006;-69
2023/10/13 02:10:48;;;;;;;;;;;;;;;-140.72;100.00;60840.97;5072837;28;20248;-69
2023/10/13 02:13:17;;;;;;;;;;;;;;;-140.72;100.00;60830.81;5077311;28;19981;-69
2023/10/13 02:15:47;;;;;;;;;;;;;;;-140.72;100.00;60828.78;5074642;28;19916;-69
2023/10/13 02:19:04;;;;;;;;;;;;;;;-140.72;100.00;60863.34;5073497;28;19920;-69
2023/10/13 02:21:04;;;;;;;;;;;;;;;-140.72;100.00;60857.25;5070403;28;19920;-69
2023/10/13 02:23:30;;;;;;;;;;;;;;;-140.72;100.00;60810.47;5073382;28;20003;-69
2023/10/13 02:26:03;;;;;;;;;;;;;;;-140.72;100.00;60816.59;5067560;28;19955;-69
2023/10/13 02:28:33;;;;;;;;;;;;;;;-140.72;100.00;60826.75;5071733;28;20000;-69
2023/10/13 02:31:03;;;;;;;;;;;;;;;-140.72;100.00;60784.06;5079641;28;19921;-69
2023/10/13 02:33:31;;;;;;;;;;;;;;;-140.72;100.00;60804.38;5075427;28;20402;-70
2023/10/13 02:35:58;;;;;;;;;;;;;;;-140.72;100.00;60784.06;5080494;28;19921;-69
2023/10/13 02:38:27;;;;;;;;;;;;;;;-140.72;100.00;60812.53;5076139;28;19916;-69
2023/10/13 02:40:54;;;;;;;;;;;;;;;-140.72;100.00;60769.81;5073175;28;20318;-69
2023/10/13 02:43:22;;;;;;;;;;;;;;;-140.72;100.00;60771.84;5076954;28;19917;-69
2023/10/13 02:45:58;;;;;;;;;;;;;;;-140.72;100.00;60786.09;5086551;28;20015;-70
2023/10/13 02:48:25;;;;;;;;;;;;;;;-140.72;100.00;60796.25;5075074;28;19932;-69
2023/10/13 02:50:55;;;;;;;;;;;;;;;-140.72;100.00;60830.81;5090739;28;20003;-70
2023/10/13 02:53:20;;;;;;;;;;;;;;;-140.72;100.00;60786.09;5076463;28;20406;-70
2023/10/13 02:55:52;;;;;;;;;;;;;;;-140.72;100.00;60814.56;5075605;28;19955;-70
2023/10/13 02:58:18;;;;;;;;;;;;;;;-140.72;100.00;60814.56;5074517;28;20389;-70
2023/10/13 03:00:44;;;;;;;;;;;;;;;-140.72;100.00;60792.19;5081748;28;19916;-69
2023/10/13 03:03:09;;;;;;;;;;;;;;;-140.72;100.00;60820.66;5075642;28;19921;-69
2023/10/13 03:05:35;;;;;;;;;;;;;;;-140.72;100.00;60812.53;5075759;28;19934;-69
2023/10/13 03:08:04;;;;;;;;;;;;;;;-140.72;100.00;60822.69;5075638;28;19971;-69
2023/10/13 03:10:29;;;;;;;;;;;;;;;-140.72;100.00;60847.09;5077447;28;20743;-69
2023/10/13 03:12:54;;;;;;;;;;;;;;;-140.72;100.00;60836.91;5079769;28;19999;-69
2023/10/13 03:15:30;;;;;;;;;;;;;;;-140.72;100.00;60840.97;5084897;28;20351;-69
2023/10/13 03:17:58;;;;;;;;;;;;;;;-140.72;100.00;60936.56;5074871;28;20021;-69
2023/10/13 03:20:32;;;;;;;;;;;;;;;-140.72;100.00;60946.72;5077033;28;19947;-69
2023/10/13 03:22:58;;;;;;;;;;;;;;;-140.72;100.00;60975.19;5074660;28;19920;-69
2023/10/13 03:25:28;;;;;;;;;;;;;;;-140.72;100.00;60971.13;5074877;28;20049;-70
2023/10/13 03:30:21;;;;;;;;;;;;;;;-140.72;100.00;60981.28;5074909;28;19928;-70
2023/10/13 03:32:48;;;;;;;;;;;;;;;-140.72;100.00;61017.91;5073351;28;19928;-69
2023/10/13 03:35:17;;;;;;;;;;;;;;;-140.72;100.00;61056.53;5074337;28;20007;-69
2023/10/13 03:37:42;;;;;;;;;;;;;;;-140.72;100.00;61078.91;5075256;28;19920;-70
2023/10/13 03:42:58;;;;;;;;;;;;;;;-140.72;100.00;61078.91;5078103;28;19920;-69
2023/10/13 03:45:24;;;;;;;;;;;;;;;-140.72;100.00;61123.66;5074853;28;20317;-69
2023/10/13 03:47:51;;;;;;;;;;;;;;;-140.72;100.00;61125.69;5069224;28;19925;-69
2023/10/13 03:50:29;;;;;;;;;;;;;;;-140.72;100.00;61137.88;5074753;28;19930;-69
2023/10/13 03:52:57;;;;;;;;;;;;;;;-140.72;100.00;61198.88;5082851;28;19924;-70
2023/10/13 03:55:26;;;;;;;;;;;;;;;-140.72;100.00;61219.22;5073236;28;19916;-69
2023/10/13 03:57:52;;;;;;;;;;;;;;;-140.72;100.00;61215.16;5073068;28;19920;-69
2023/10/13 04:00:23;;;;;;;;;;;;;;;-140.72;100.00;61223.28;5073976;28;19927;-69
2023/10/13 04:02:55;;;;;;;;;;;;;;;-140.72;100.00;61284.31;5074641;28;19920;-69
2023/10/13 04:29:46;;;;;;;;;;;;;;;-140.72;100.00;61479.53;5072067;28;19920;-69
2023/10/13 04:32:14;;;;;;;;;;;;;;;-140.72;100.00;61491.75;5073525;28;19917;-69
2023/10/13 04:34:45;;;;;;;;;;;;;;;-140.72;100.00;61459.19;5085581;28;20315;-69
2023/10/13 04:37:28;;;;;;;;;;;;;;;-140.72;100.00;61489.72;5074117;28;19961;-70
2023/10/13 04:39:59;;;;;;;;;;;;;;;-140.72;100.00;61514.13;5074508;28;20371;-69
2023/10/13 04:42:39;;;;;;;;;;;;;;;-140.72;100.00;61463.28;5066179;28;19916;-69
2023/10/13 04:45:16;;;;;;;;;;;;;;;-140.72;100.00;61463.28;5075231;28;19927;-69
2023/10/13 04:47:47;;;;;;;;;;;;;;;-140.72;100.00;61508.00;5073509;28;19938;-69
2023/10/13 04:50:22;;;;;;;;;;;;;;;-140.72;100.00;61479.53;5081970;28;19920;-70
2023/10/13 04:55:48;;;;;;;;;;;;;;;-140.72;100.00;61414.47;5074864;28;19995;-68
2023/10/13 04:59:15;;;;;;;;;;;;;;;-140.72;100.00;61410.38;5083088;28;19917;-69
2023/10/13 06:31:05;;;;;;;;;;;;;;;-140.72;100.00;60680.34;5072366;28;20323;-70
2023/10/13 06:33:33;;;;;;;;;;;;;;;-140.72;100.00;60735.25;5076547;28;20394;-70
2023/10/13 06:36:03;;;;;;;;;;;;;;;-140.72;100.00;60745.41;5074779;28;20323;-72
2023/10/13 06:38:36;;;;;;;;;;;;;;;-140.72;100.00;60763.72;5068667;28;19967;-74
2023/10/13 06:41:05;;;;;;;;;;;;;;;-140.72;100.00;60775.91;5071438;28;20314;-75
2023/10/13 06:43:32;;;;;;;;;;;;;;;-140.72;100.00;60790.16;5072554;28;19999;-70
2023/10/13 06:46:00;;;;;;;;;;;;;;;-140.72;100.00;60840.97;5074548;28;20455;-70
2023/10/13 06:48:26;;;;;;;;;;;;;;;-140.72;100.00;60834.88;5081596;28;20369;-70
2023/10/13 06:50:55;;;;;;;;;;;;;;;-140.72;100.00;60853.19;5083304;28;20304;-70
2023/10/13 06:53:21;;;;;;;;;;;;;;;-140.72;100.00;60914.19;5076789;28;19955;-73
2023/10/13 06:55:52;;;;;;;;;;;;;;;-140.72;100.00;60877.59;5080006;28;20310;-72
2023/10/13 06:58:23;;;;;;;;;;;;;;;-140.72;100.00;60895.88;5089686;28;19974;-72
2023/10/13 07:00:55;;;;;;;;;;;;;;;-140.72;100.00;60908.09;5075107;28;19920;-72
2023/10/13 07:03:21;;;;;;;;;;;;;;;-140.72;100.00;60920.28;5073679;28;19920;-73
2023/10/13 07:05:47;;;;;;;;;;;;;;;-140.72;100.00;60889.78;5077079;28;20330;-73
2023/10/13 07:08:23;;;;;;;;;;;;;;;-140.72;100.00;60954.84;5078026;28;19956;-74
2023/10/13 07:11:02;;;;;;;;;;;;;;;-140.72;100.00;60877.59;5076890;28;19963;-72
2023/10/13 07:13:28;;;;;;;;;;;;;;;-140.72;100.00;60877.59;5075873;28;19916;-73
2023/10/13 07:15:59;;;;;;;;;;;;;;;-140.72;100.00;60877.59;5075965;28;19989;-73
2023/10/13 07:18:25;;;;;;;;;;;;;;;-140.72;100.00;60840.97;5080405;28;20422;-72
2023/10/13 07:20:50;;;;;;;;;;;;;;;-140.72;100.00;60826.75;5075196;28;19956;-72
2023/10/13 07:23:19;;;;;;;;;;;;;;;-140.72;100.00;60743.38;5069660;28;20379;-72
2023/10/13 07:25:56;;;;;;;;;;;;;;;-140.72;100.00;60702.72;5073873;28;19925;-72
2023/10/13 07:28:22;;;;;;;;;;;;;;;-140.72;100.00;60688.47;5084913;28;19964;-73
2023/10/13 07:33:21;;;;;;;;;;;;;;;-140.72;100.00;60570.53;5082386;28;19956;-71
2023/10/13 07:35:50;;;;;;;;;;;;;;;-140.72;100.00;60503.44;5083356;28;19924;-72
2023/10/13 07:38:16;;;;;;;;;;;;;;;-140.72;100.00;60428.22;5075050;28;19955;-72
2023/10/13 07:40:42;;;;;;;;;;;;;;;-140.72;100.00;60287.94;5077701;28;19990;-72
2023/10/13 07:43:10;;;;;;;;;;;;;;;-140.72;100.00;60165.94;5082362;28;19921;-73
2023/10/13 07:45:36;;;;;;;;;;;;;;;-140.72;100.00;60027.69;5072428;28;19920;-73
2023/10/13 07:48:07;;;;;;;;;;;;;;;-140.72;100.00;59856.91;5072725;28;20343;-75
2023/10/13 07:50:33;;;;;;;;;;;;;;;-140.72;100.00;59736.97;5075015;28;20002;-76
2023/10/13 07:53:04;;;;;;;;;;;;;;;-140.72;100.00;59625.16;5071744;28;19920;-73
2023/10/13 07:55:32;;;;;;;;;;;;;;;-140.72;100.00;59511.34;5074714;28;20378;-74
2023/10/13 07:57:59;;;;;;;;;;;;;;;-140.72;100.00;59442.22;5078545;28;20048;-74
2023/10/13 08:05:55;;;;;;;;;;;;;;;-140.72;100.00;59182.03;5065304;28;20379;-73
2023/10/13 08:08:21;;;;;;;;;;;;;;;-140.72;100.00;59127.16;5073366;28;19996;-72
2023/10/13 08:10:47;;;;;;;;;;;;;;;-140.72;100.00;59074.31;5067406;28;20022;-76
2023/10/13 08:13:12;;;;;;;;;;;;;;;-140.72;100.00;59039.75;5071078;28;20375;-72
2023/10/13 08:15:47;;;;;;;;;;;;;;;-140.72;100.00;58960.50;5081897;28;19923;-72
2023/10/13 08:18:29;;;;;;;;;;;;;;;-140.72;100.00;58944.22;5075245;28;19943;-72
2023/10/13 08:21:02;;;;;;;;;;;;;;;-140.72;100.00;58883.25;5067576;28;19920;-72
2023/10/13 08:23:34;;;;;;;;;;;;;;;-140.72;100.00;58791.81;5074016;28;19920;-72
2023/10/13 08:28:53;;;;;;;;;;;;;;;-140.72;100.00;58671.91;5073601;28;19932;-73
2023/10/13 08:31:29;;;;;;;;;;;;;;;-140.72;100.00;58580.44;5067576;28;19920;-74
2023/10/13 08:34:06;;;;;;;;;;;;;;;-140.72;100.00;58517.44;5068403;28;19920;-72
2023/10/13 08:36:32;;;;;;;;;;;;;;;-140.72;100.00;58509.31;5070342;28;19946;-79
2023/10/13 08:38:57;;;;;;;;;;;;;;;-140.72;100.00;58462.56;5069192;28;19924;-73
2023/10/13 08:44:03;;;;;;;;;;;;;;;-140.72;100.00;58338.59;5070887;28;20371;-72
2023/10/13 08:46:34;;;;;;;;;;;;;;;-140.72;100.00;58267.47;5066693;28;19927;-72
2023/10/13 08:49:14;;;;;;;;;;;;;;;-140.72;100.00;58171.97;5072153;28;20023;-72
2023/10/13 08:52:04;;;;;;;;;;;;;;;-140.72;100.00;58125.22;5073277;28;20342;-73
2023/10/13 08:54:33;;;;;;;;;;;;;;;-140.72;100.00;58125.22;5068756;28;19923;-72
2023/10/13 08:57:29;;;;;;;;;;;;;;;-140.72;100.00;58096.78;5072771;28;19950;-73
2023/10/13 08:59:53;;;;;;;;;;;;;;;-140.72;100.00;58031.75;5070780;28;19924;-72
2023/10/13 09:02:21;;;;;;;;;;;;;;;-140.72;100.00;57999.25;5070732;28;20013;-72
2023/10/13 09:04:47;;;;;;;;;;;;;;;-140.72;100.00;57926.09;5071447;28;19932;-72
2023/10/13 09:07:16;;;;;;;;;;;;;;;-140.72;100.00;57893.59;5080269;28;20379;-71
2023/10/13 09:12:19;;;;;;;;;;;;;;;-140.72;100.00;57757.44;5070068;28;20783;-71
2023/10/13 09:14:57;;;;;;;;;;;;;;;-140.72;100.00;57702.59;5069669;28;19982;-73
2023/10/13 09:19:58;;;;;;;;;;;;;;;-140.72;100.00;57631.47;5061798;28;20015;-76
2023/10/13 09:22:27;;;;;;;;;;;;;;;-140.72;100.00;57655.84;5061323;28;19964;-71
2023/10/13 09:24:59;;;;;;;;;;;;;;;-140.72;100.00;57592.88;5066981;28;20379;-70
2023/10/13 09:27:26;;;;;;;;;;;;;;;-140.72;100.00;57552.22;5076455;28;20003;-74
2023/10/13 09:30:18;;;;;;;;;;;;;;;-140.72;100.00;57497.38;5077027;28;19920;-73
2023/10/13 09:32:46;;;;;;;;;;;;;;;-140.72;100.00;57475.03;5069027;28;19956;-74
2023/10/13 09:35:20;;;;;;;;;;;;;;;-140.72;100.00;57493.31;5075120;28;19955;-72
2023/10/13 09:37:46;;;;;;;;;;;;;;;-140.72;100.00;57450.66;5082356;28;20007;-73
2023/10/13 09:40:25;;;;;;;;;;;;;;;-140.72;100.00;57369.38;5077742;28;20351;-72
2023/10/13 09:42:50;;;;;;;;;;;;;;;-140.72;100.00;57320.63;5092413;28;19965;-73
2023/10/13 09:45:17;;;;;;;;;;;;;;;-140.72;100.00;57292.19;5077020;28;20015;-79
2023/10/13 09:47:47;;;;;;;;;;;;;;;-140.72;100.00;57257.63;5073044;28;19924;-74
2023/10/13 09:50:24;;;;;;;;;;;;;;;-140.72;100.00;57219.03;5077300;28;19920;-73
2023/10/13 09:52:58;;;;;;;;;;;;;;;-140.72;100.00;57168.25;5066540;28;19921;-72
2023/10/13 09:55:29;;;;;;;;;;;;;;;-140.72;100.00;57162.16;5069985;28;20355;-73
2023/10/13 09:58:14;;;;;;;;;;;;;;;-140.72;100.00;57093.09;5070002;28;19927;-72
2023/10/13 10:01:06;;;;;;;;;;;;;;;-140.72;100.00;57040.25;5070816;28;19921;-73
2023/10/13 10:06:03;;;;;;;;;;;;;;;-140.72;100.00;56800.56;5075781;28;19964;-72
2023/10/13 10:08:38;;;;;;;;;;;;;;;-140.72;100.00;56759.94;5075826;28;19921;-72
2023/10/13 10:11:15;;;;;;;;;;;;;;;-140.72;100.00;56625.84;5083015;28;19921;-71
2023/10/13 10:14:04;;;;;;;;;;;;;;;-140.72;100.00;56528.34;5073989;28;20377;-72
2023/10/13 10:16:49;;;;;;;;;;;;;;;-140.72;100.00;56445.09;5068657;28;19920;-73
2023/10/13 10:19:14;;;;;;;;;;;;;;;-140.72;100.00;56256.19;5075069;28;20279;-72
2023/10/13 10:21:41;;;;;;;;;;;;;;;-140.72;100.00;56162.75;5072214;28;19920;-72
2023/10/13 10:24:24;;;;;;;;;;;;;;;-140.72;100.00;56150.56;5072456;28;19916;-72
2023/10/13 10:26:55;;;;;;;;;;;;;;;-140.72;100.00;56211.50;5074117;28;19981;-72
2023/10/13 10:29:20;;;;;;;;;;;;;;;-140.72;100.00;56239.94;5074250;28;19920;-72
2023/10/13 10:31:46;;;;;;;;;;;;;;;-140.72;100.00;56268.38;5071310;28;19931;-72
2023/10/13 10:34:12;;;;;;;;;;;;;;;-140.72;100.00;56306.97;5073054;28;20298;-72
2023/10/13 10:36:42;;;;;;;;;;;;;;;-140.72;100.00;56286.66;5077227;28;20441;-74
2023/10/13 10:39:08;;;;;;;;;;;;;;;-140.72;100.00;56349.63;5069649;28;19920;-73
2023/10/13 10:47:19;;;;;;;;;;;;;;;-140.72;100.00;56244.00;5068534;28;19955;-74
2023/10/13 10:49:45;;;;;;;;;;;;;;;-140.72;100.00;56179.00;5068120;28;19990;-73
2023/10/13 10:52:14;;;;;;;;;;;;;;;-140.72;100.00;56260.25;5075408;28;19916;-72
2023/10/13 10:54:43;;;;;;;;;;;;;;;-140.72;100.00;56233.84;5075323;28;19920;-73
2023/10/13 10:57:12;;;;;;;;;;;;;;;-140.72;100.00;56164.78;5072721;28;19943;-72
2023/10/13 10:59:38;;;;;;;;;;;;;;;-140.72;100.00;56142.44;5073645;28;19920;-71
2023/10/13 11:02:03;;;;;;;;;;;;;;;-140.72;100.00;56221.66;5070958;28;19921;-79
2023/10/13 11:04:33;;;;;;;;;;;;;;;-140.72;100.00;56172.91;5071332;28;19920;-70
2023/10/13 11:06:59;;;;;;;;;;;;;;;-140.72;100.00;56097.75;5073981;28;19986;-70
2023/10/13 11:12:15;;;;;;;;;;;;;;;-140.72;100.00;55904.81;5068354;28;19924;-72
2023/10/13 11:14:41;;;;;;;;;;;;;;;-140.72;100.00;55732.19;5071769;28;20382;-75
2023/10/13 11:17:18;;;;;;;;;;;;;;;-140.72;100.00;55679.41;5069166;28;19986;-77
2023/10/13 11:19:43;;;;;;;;;;;;;;;-140.72;100.00;55569.72;5067882;28;20015;-74
2023/10/13 11:22:29;;;;;;;;;;;;;;;-140.72;100.00;55472.25;5071929;28;19970;-71
2023/10/13 11:24:54;;;;;;;;;;;;;;;-140.72;100.00;55486.47;5066838;28;19928;-75
2023/10/13 11:27:21;;;;;;;;;;;;;;;-140.72;100.00;55474.28;5074591;28;20383;-76
2023/10/13 11:29:52;;;;;;;;;;;;;;;-140.72;100.00;55512.88;5076692;28;19924;-78
2023/10/13 11:32:20;;;;;;;;;;;;;;;-140.72;100.00;55500.69;5073709;28;19920;-76
2023/10/13 11:34:45;;;;;;;;;;;;;;;-140.72;100.00;55516.94;5071094;28;19926;-79
2023/10/13 11:37:43;;;;;;;;;;;;;;;-140.72;100.00;55510.84;5072500;28;19921;-76
2023/10/13 11:40:09;;;;;;;;;;;;;;;-140.72;100.00;55447.88;5070143;28;20011;-76
2023/10/13 11:42:36;;;;;;;;;;;;;;;-140.72;100.00;55393.06;5073807;28;19928;-78
2023/10/13 11:45:28;;;;;;;;;;;;;;;-140.72;100.00;55435.72;5066467;28;19924;-78
2023/10/13 11:47:59;;;;;;;;;;;;;;;-140.72;100.00;55354.47;5072718;28;19924;-75
2023/10/13 11:50:34;;;;;;;;;;;;;;;-140.72;100.00;55348.38;5068275;28;19924;-78
2023/10/13 11:53:00;;;;;;;;;;;;;;;-140.72;100.00;55451.94;5075128;28;19929;-77
2023/10/13 11:55:25;;;;;;;;;;;;;;;-140.72;100.00;55484.44;5073802;28;20015;-75
2023/10/13 11:57:51;;;;;;;;;;;;;;;-140.72;100.00;55516.94;5067348;28;20385;-78
2023/10/13 12:00:26;;;;;;;;;;;;;;;-140.72;100.00;55555.50;5074321;28;19928;-77
2023/10/13 12:05:49;;;;;;;;;;;;;;;-140.72;100.00;55439.75;5069259;28;20111;-76
2023/10/13 12:08:21;;;;;;;;;;;;;;;-140.72;100.00;55366.66;5071382;28;20383;-75
2023/10/13 12:10:59;;;;;;;;;;;;;;;-140.72;100.00;55261.06;5070432;28;20006;-75
2023/10/13 12:13:24;;;;;;;;;;;;;;;-140.72;100.00;55279.34;5071653;28;20011;-77
2023/10/13 12:15:52;;;;;;;;;;;;;;;-140.72;100.00;55277.31;5072090;28;19924;-78
2023/10/13 12:18:19;;;;;;;;;;;;;;;-140.72;100.00;55285.44;5074904;28;19956;-77
2023/10/13 12:20:45;;;;;;;;;;;;;;;-140.72;100.00;55338.22;5076492;28;19960;-76
2023/10/13 12:23:15;;;;;;;;;;;;;;;-140.72;100.00;55358.53;5073101;28;19920;-78
2023/10/13 12:26:00;;;;;;;;;;;;;;;-140.72;100.00;55334.16;5068306;28;19928;-78
2023/10/13 12:28:28;;;;;;;;;;;;;;;-140.72;100.00;55411.34;5067598;28;19927;-78
2023/10/13 12:30:57;;;;;;;;;;;;;;;-140.72;100.00;55453.97;5077716;28;21703;-77
2023/10/13 12:33:25;;;;;;;;;;;;;;;-140.72;100.00;55468.19;5074521;28;19973;-77
2023/10/13 12:36:09;;;;;;;;;;;;;;;-140.72;100.00;55488.50;5074648;28;19928;-78
2023/10/13 12:52:31;;;;;;;;;;;;;;;-140.72;100.00;56371.97;5073491;28;20317;-77
2023/10/13 12:57:25;;;;;;;;;;;;;;;-140.72;100.00;56467.44;5069062;28;19921;-78
2023/10/13 12:59:53;;;;;;;;;;;;;;;-140.72;100.00;56560.84;5072355;28;19962;-77
2023/10/13 13:02:20;;;;;;;;;;;;;;;-140.72;100.00;56735.56;5065767;28;19928;-76
2023/10/13 13:04:48;;;;;;;;;;;;;;;-140.72;100.00;56833.06;5062815;28;20003;-76
2023/10/13 13:07:13;;;;;;;;;;;;;;;-140.72;100.00;56926.50;5073255;28;19921;-77
2023/10/13 13:09:39;;;;;;;;;;;;;;;-140.72;100.00;56938.69;5073172;28;19920;-75
2023/10/13 13:12:06;;;;;;;;;;;;;;;-140.72;100.00;56963.06;5069015;28;20109;-75
2023/10/13 13:14:34;;;;;;;;;;;;;;;-140.72;100.00;56918.38;5074139;28;19927;-75
2023/10/13 13:17:08;;;;;;;;;;;;;;;-140.72;100.00;56881.81;5070527;28;19920;-75
2023/10/13 13:19:36;;;;;;;;;;;;;;;-140.72;100.00;56798.53;5068496;28;19917;-76
2023/10/13 13:22:05;;;;;;;;;;;;;;;-140.72;100.00;56686.81;5072183;28;19962;-75
2023/10/13 13:24:31;;;;;;;;;;;;;;;-140.72;100.00;56607.56;5067760;28;19999;-74
2023/10/13 13:27:01;;;;;;;;;;;;;;;-140.72;100.00;56579.13;5071777;28;19944;-76
2023/10/13 13:29:27;;;;;;;;;;;;;;;-140.72;100.00;56564.91;5066033;28;20282;-77
2023/10/13 13:31:53;;;;;;;;;;;;;;;-140.72;100.00;56420.72;5071380;28;19920;-80
2023/10/13 13:34:20;;;;;;;;;;;;;;;-140.72;100.00;56359.78;5067552;28;20402;-77
2023/10/13 13:36:49;;;;;;;;;;;;;;;-140.72;100.00;56284.63;5071906;28;20428;-78
2023/10/13 13:39:18;;;;;;;;;;;;;;;-140.72;100.00;56239.94;5081663;28;19921;-77
2023/10/13 13:41:50;;;;;;;;;;;;;;;-140.72;100.00;56317.13;5066284;28;19921;-78
2023/10/13 13:44:15;;;;;;;;;;;;;;;-140.72;100.00;56540.53;5071598;28;19920;-75
2023/10/13 13:46:47;;;;;;;;;;;;;;;-140.72;100.00;56894.00;5070598;28;19985;-78
2023/10/13 13:49:26;;;;;;;;;;;;;;;-140.72;100.00;57387.66;5070813;28;19992;-75
2023/10/13 13:51:52;;;;;;;;;;;;;;;-140.72;100.00;57830.59;5073023;28;19926;-75
2023/10/13 13:54:20;;;;;;;;;;;;;;;-140.72;100.00;58182.13;5068489;28;19920;-74
2023/10/13 13:56:46;;;;;;;;;;;;;;;-140.72;100.00;58440.22;5067571;28;20442;-75
2023/10/13 13:59:15;;;;;;;;;;;;;;;-140.72;100.00;58698.31;5072056;28;20011;-76
2023/10/13 14:01:44;;;;;;;;;;;;;;;-140.72;100.00;58919.84;5071360;28;19955;-75
2023/10/13 14:04:09;;;;;;;;;;;;;;;-140.72;100.00;59192.19;5061784;28;19927;-75
2023/10/13 14:06:34;;;;;;;;;;;;;;;-140.72;100.00;59265.38;5069579;28;20090;-75
2023/10/13 14:09:02;;;;;;;;;;;;;;;-140.72;100.00;59472.72;5065645;28;20015;-74
2023/10/13 14:17:07;;;;;;;;;;;;;;;-140.72;100.00;59899.63;5074349;28;19921;-72
2023/10/13 14:19:33;;;;;;;;;;;;;;;-140.72;100.00;60015.50;5070092;28;20323;-71
2023/10/13 14:21:58;;;;;;;;;;;;;;;-140.72;100.00;60096.81;5074360;28;19971;-72
2023/10/13 14:24:27;;;;;;;;;;;;;;;-140.72;100.00;60170.00;5074980;28;19974;-72
2023/10/13 14:26:56;;;;;;;;;;;;;;;-140.72;100.00;60216.78;5074006;28;19920;-71
2023/10/13 14:29:21;;;;;;;;;;;;;;;-140.72;100.00;60279.78;5070573;28;20409;-70
2023/10/13 14:31:48;;;;;;;;;;;;;;;-140.72;100.00;60332.66;5075359;28;19920;-71
2023/10/13 14:34:14;;;;;;;;;;;;;;;-140.72;100.00;60367.22;5074484;28;20442;-72
2023/10/13 14:36:40;;;;;;;;;;;;;;;-140.72;100.00;60440.41;5074312;28;19952;-70
2023/10/13 14:39:09;;;;;;;;;;;;;;;-140.72;100.00;60507.50;5069958;28;19920;-71
2023/10/13 14:41:34;;;;;;;;;;;;;;;-140.72;100.00;60499.38;5078415;28;20007;-71
2023/10/13 14:44:05;;;;;;;;;;;;;;;-140.72;100.00;60529.88;5071508;28;20020;-70
2023/10/13 14:46:30;;;;;;;;;;;;;;;-140.72;100.00;60560.38;5072483;28;19931;-71
2023/10/13 14:48:55;;;;;;;;;;;;;;;-140.72;100.00;60574.63;5069150;28;19925;-71
2023/10/13 14:51:21;;;;;;;;;;;;;;;-140.72;100.00;60657.97;5076492;28;19923;-71
2023/10/13 14:53:46;;;;;;;;;;;;;;;-140.72;100.00;60696.63;5069276;28;20060;-71
2023/10/13 14:56:16;;;;;;;;;;;;;;;-140.72;100.00;60710.84;5074381;28;20073;-71
2023/10/13 14:58:44;;;;;;;;;;;;;;;-140.72;100.00;60773.88;5071196;28;19927;-71
2023/10/13 15:01:15;;;;;;;;;;;;;;;-140.72;100.00;60737.28;5076310;28;20275;-71
2023/10/13 15:03:44;;;;;;;;;;;;;;;-140.72;100.00;60777.94;5068615;28;19921;-71
2023/10/13 15:06:26;;;;;;;;;;;;;;;-140.72;100.00;60784.06;5074653;28;20416;-69
2023/10/13 15:08:56;;;;;;;;;;;;;;;-140.72;100.00;60812.53;5072287;28;19921;-80
2023/10/13 15:11:26;;;;;;;;;;;;;;;-140.72;100.00;60840.97;5088573;28;19938;-73
2023/10/13 15:13:52;;;;;;;;;;;;;;;-140.72;100.00;60834.88;5067247;28;20054;-72
2023/10/13 15:16:19;;;;;;;;;;;;;;;-140.72;100.00;60832.84;5076981;28;20396;-72
2023/10/13 15:18:45;;;;;;;;;;;;;;;-140.72;100.00;60822.69;5066957;28;19920;-73
2023/10/13 15:21:10;;;;;;;;;;;;;;;-140.72;100.00;60853.19;5072131;28;19973;-72
2023/10/13 15:23:42;;;;;;;;;;;;;;;-140.72;100.00;60889.78;5068882;28;19920;-71
2023/10/13 15:26:13;;;;;;;;;;;;;;;-140.72;100.00;60924.34;5072811;28;20003;-71
2023/10/13 15:28:48;;;;;;;;;;;;;;;-140.72;100.00;60922.31;5073944;28;19927;-71